sensor_id;sensor_type;location;lat;lon;timestamp;pressure;altitude;pressure_sealevel;temperature;humidity
39455;BME280;25155;41.890;23.446;2023-08-21T00:01:04;92325.28;;;20.78;49.11
39455;BME280;25155;41.890;23.446;2023-08-21T00:03:31;92318.13;;;20.79;49.41
39455;BME280;25155;41.890;23.446;2023-08-21T00:05:59;92321.56;;;20.79;49.67
39455;BME280;25155;41.890;23.446;2023-08-21T00:08:27;92319.53;;;20.76;49.52
39455;BME280;25155;41.890;23.446;2023-08-21T00:10:55;92322.81;;;20.73;49.00
39455;BME280;25155;41.890;23.446;2023-08-21T00:13:22;92309.91;;;20.63;49.95
39455;BME280;25155;41.890;23.446;2023-08-21T00:15:49;92322.81;;;20.73;50.05
39455;BME280;25155;41.890;23.446;2023-08-21T00:18:18;92318.91;;;20.62;50.66
39455;BME280;25155;41.890;23.446;2023-08-21T00:20:45;92319.25;;;20.52;50.29
39455;BME280;25155;41.890;23.446;2023-08-21T00:23:13;92334.69;;;20.50;50.40
39455;BME280;25155;41.890;23.446;2023-08-21T00:25:40;92327.81;;;20.49;50.43
39455;BME280;25155;41.890;23.446;2023-08-21T00:28:09;92326.28;;;20.48;49.73
39455;BME280;25155;41.890;23.446;2023-08-21T00:30:36;92326.28;;;20.48;49.93
39455;BME280;25155;41.890;23.446;2023-08-21T00:33:03;92331.56;;;20.48;50.16
39455;BME280;25155;41.890;23.446;2023-08-21T00:35:32;92327.34;;;20.46;51.16
39455;BME280;25155;41.890;23.446;2023-08-21T00:37:59;92338.41;;;20.49;50.93
39455;BME280;25155;41.890;23.446;2023-08-21T00:40:27;92331.44;;;20.44;51.01
39455;BME280;25155;41.890;23.446;2023-08-21T00:42:54;92328.16;;;20.30;52.19
39455;BME280;25155;41.890;23.446;2023-08-21T00:45:21;92333.59;;;20.16;52.06
39455;BME280;25155;41.890;23.446;2023-08-21T00:47:49;92341.38;;;20.12;51.43
39455;BME280;25155;41.890;23.446;2023-08-21T00:50:16;92333.75;;;20.10;51.58
39455;BME280;25155;41.890;23.446;2023-08-21T00:52:45;92328.00;;;20.08;51.52
39455;BME280;25155;41.890;23.446;2023-08-21T00:57:41;92338.75;;;19.95;53.23
39455;BME280;25155;41.890;23.446;2023-08-21T01:00:09;92335.94;;;19.91;52.46
39455;BME280;25155;41.890;23.446;2023-08-21T01:02:37;92332.19;;;19.92;51.79
39455;BME280;25155;41.890;23.446;2023-08-21T01:05:04;92331.72;;;19.90;52.19
39455;BME280;25155;41.890;23.446;2023-08-21T01:07:36;92332.66;;;19.77;54.10
39455;BME280;25155;41.890;23.446;2023-08-21T01:10:11;92340.22;;;19.61;54.02
39455;BME280;25155;41.890;23.446;2023-08-21T01:12:50;92352.34;;;19.53;53.61
39455;BME280;25155;41.890;23.446;2023-08-21T01:15:19;92339.44;;;19.60;54.06
39455;BME280;25155;41.890;23.446;2023-08-21T01:17:48;92341.13;;;19.56;54.54
39455;BME280;25155;41.890;23.446;2023-08-21T01:20:16;92339.75;;;19.59;53.97
39455;BME280;25155;41.890;23.446;2023-08-21T01:22:44;92336.78;;;19.60;54.01
39455;BME280;25155;41.890;23.446;2023-08-21T01:25:13;92344.28;;;19.58;53.61
39455;BME280;25155;41.890;23.446;2023-08-21T01:27:44;92344.28;;;19.58;53.49
39455;BME280;25155;41.890;23.446;2023-08-21T01:30:12;92344.28;;;19.58;53.00
39455;BME280;25155;41.890;23.446;2023-08-21T01:32:50;92346.88;;;19.49;54.10
39455;BME280;25155;41.890;23.446;2023-08-21T01:35:20;92341.88;;;19.48;53.57
39455;BME280;25155;41.890;23.446;2023-08-21T01:37:48;92338.63;;;19.51;53.59
39455;BME280;25155;41.890;23.446;2023-08-21T01:40:21;92336.94;;;19.46;53.15
39455;BME280;25155;41.890;23.446;2023-08-21T01:42:49;92340.97;;;19.44;54.89
39455;BME280;25155;41.890;23.446;2023-08-21T01:45:16;92335.94;;;19.33;54.50
39455;BME280;25155;41.890;23.446;2023-08-21T01:47:43;92338.91;;;19.32;54.11
39455;BME280;25155;41.890;23.446;2023-08-21T01:50:11;92344.97;;;19.32;53.65
39455;BME280;25155;41.890;23.446;2023-08-21T01:52:38;92339.66;;;19.32;53.53
39455;BME280;25155;41.890;23.446;2023-08-21T01:55:06;92343.09;;;19.33;53.59
39455;BME280;25155;41.890;23.446;2023-08-21T01:57:35;92341.84;;;19.30;53.37
39455;BME280;25155;41.890;23.446;2023-08-21T02:00:04;92343.88;;;19.33;53.56
39455;BME280;25155;41.890;23.446;2023-08-21T02:02:32;92339.38;;;19.34;53.37
39455;BME280;25155;41.890;23.446;2023-08-21T02:04:59;92345.44;;;19.34;53.29
39455;BME280;25155;41.890;23.446;2023-08-21T02:07:26;92338.59;;;19.33;53.64
39455;BME280;25155;41.890;23.446;2023-08-21T02:09:53;92335.47;;;19.31;53.36
39455;BME280;25155;41.890;23.446;2023-08-21T02:12:21;92330.19;;;19.31;54.29
39455;BME280;25155;41.890;23.446;2023-08-21T02:14:49;92334.06;;;19.25;53.79
39455;BME280;25155;41.890;23.446;2023-08-21T02:17:17;92332.66;;;19.28;53.79
39455;BME280;25155;41.890;23.446;2023-08-21T02:19:45;92329.53;;;19.26;53.46
39455;BME280;25155;41.890;23.446;2023-08-21T02:22:12;92331.41;;;19.25;53.64
39455;BME280;25155;41.890;23.446;2023-08-21T02:24:39;92325.97;;;19.22;53.08
39455;BME280;25155;41.890;23.446;2023-08-21T02:27:06;92337.78;;;19.24;53.37
39455;BME280;25155;41.890;23.446;2023-08-21T02:29:34;92335.75;;;19.21;53.43
39455;BME280;25155;41.890;23.446;2023-08-21T02:32:02;92335.56;;;19.17;54.02
39455;BME280;25155;41.890;23.446;2023-08-21T02:34:30;92337.91;;;19.10;54.30
39455;BME280;25155;41.890;23.446;2023-08-21T02:36:57;92333.97;;;19.08;54.22
39455;BME280;25155;41.890;23.446;2023-08-21T02:39:25;92335.84;;;19.07;53.86
39455;BME280;25155;41.890;23.446;2023-08-21T02:41:52;92328.84;;;19.03;54.43
39455;BME280;25155;41.890;23.446;2023-08-21T02:44:19;92331.44;;;18.94;54.82
39455;BME280;25155;41.890;23.446;2023-08-21T02:46:46;92339.69;;;18.92;54.71
39455;BME280;25155;41.890;23.446;2023-08-21T02:49:14;92335.75;;;18.90;54.68
39455;BME280;25155;41.890;23.446;2023-08-21T02:51:42;92335.47;;;18.91;54.12
39455;BME280;25155;41.890;23.446;2023-08-21T02:54:09;92331.28;;;18.90;53.86
39455;BME280;25155;41.890;23.446;2023-08-21T02:56:36;92332.81;;;18.91;53.96
39455;BME280;25155;41.890;23.446;2023-08-21T02:59:03;92336.56;;;18.90;53.84
39455;BME280;25155;41.890;23.446;2023-08-21T03:01:30;92332.34;;;18.89;53.97
39455;BME280;25155;41.890;23.446;2023-08-21T03:03:57;92338.41;;;18.90;53.61
39455;BME280;25155;41.890;23.446;2023-08-21T03:06:26;92333.41;;;18.88;53.73
39455;BME280;25155;41.890;23.446;2023-08-21T03:08:53;92324.72;;;18.88;53.66
39455;BME280;25155;41.890;23.446;2023-08-21T03:11:20;92325.50;;;18.88;53.38
39455;BME280;25155;41.890;23.446;2023-08-21T03:13:48;92341.69;;;18.87;53.88
39455;BME280;25155;41.890;23.446;2023-08-21T03:16:15;92336.41;;;18.87;54.70
39455;BME280;25155;41.890;23.446;2023-08-21T03:18:55;92342.91;;;18.67;55.97
39455;BME280;25155;41.890;23.446;2023-08-21T03:21:22;92340.41;;;18.61;55.30
39455;BME280;25155;41.890;23.446;2023-08-21T03:23:54;92337.28;;;18.59;54.96
39455;BME280;25155;41.890;23.446;2023-08-21T03:26:22;92334.19;;;18.57;55.51
39455;BME280;25155;41.890;23.446;2023-08-21T03:28:49;92342.34;;;18.47;55.67
39455;BME280;25155;41.890;23.446;2023-08-21T03:31:16;92345.59;;;18.44;55.30
39455;BME280;25155;41.890;23.446;2023-08-21T03:33:44;92343.44;;;18.46;55.38
39455;BME280;25155;41.890;23.446;2023-08-21T03:36:12;92339.03;;;18.41;55.12
39455;BME280;25155;41.890;23.446;2023-08-21T03:38:39;92339.34;;;18.40;54.96
39455;BME280;25155;41.890;23.446;2023-08-21T03:41:08;92337.41;;;18.32;56.46
39455;BME280;25155;41.890;23.446;2023-08-21T03:43:35;92333.16;;;18.22;57.09
39455;BME280;25155;41.890;23.446;2023-08-21T03:46:03;92340.66;;;18.06;57.68
39455;BME280;25155;41.890;23.446;2023-08-21T03:48:30;92343.59;;;18.04;56.79
39455;BME280;25155;41.890;23.446;2023-08-21T03:50:57;92345.63;;;18.07;56.30
39455;BME280;25155;41.890;23.446;2023-08-21T03:53:24;92343.47;;;18.10;55.91
39455;BME280;25155;41.890;23.446;2023-08-21T03:55:51;92347.47;;;18.07;56.84
39455;BME280;25155;41.890;23.446;2023-08-21T03:58:20;92345.13;;;18.05;56.46
39455;BME280;25155;41.890;23.446;2023-08-21T04:00:47;92346.41;;;18.08;56.16
39455;BME280;25155;41.890;23.446;2023-08-21T04:03:14;92349.06;;;18.08;55.69
39455;BME280;25155;41.890;23.446;2023-08-21T04:05:41;92350.63;;;18.09;55.77
39455;BME280;25155;41.890;23.446;2023-08-21T04:08:08;92348.47;;;18.11;55.81
39455;BME280;25155;41.890;23.446;2023-08-21T04:10:36;92352.16;;;18.10;56.28
39455;BME280;25155;41.890;23.446;2023-08-21T04:13:04;92356.97;;;18.08;55.88
39455;BME280;25155;41.890;23.446;2023-08-21T04:15:33;92354.63;;;18.06;55.99
39455;BME280;25155;41.890;23.446;2023-08-21T04:18:02;92353.25;;;18.09;55.64
39455;BME280;25155;41.890;23.446;2023-08-21T04:20:29;92359.03;;;18.11;55.77
39455;BME280;25155;41.890;23.446;2023-08-21T04:22:56;92356.38;;;18.11;55.42
39455;BME280;25155;41.890;23.446;2023-08-21T04:25:24;92361.84;;;18.15;55.56
39455;BME280;25155;41.890;23.446;2023-08-21T04:27:51;92360.78;;;18.16;56.59
39455;BME280;25155;41.890;23.446;2023-08-21T04:30:18;92363.69;;;18.14;56.30
39455;BME280;25155;41.890;23.446;2023-08-21T04:32:47;92356.84;;;18.13;56.70
39455;BME280;25155;41.890;23.446;2023-08-21T04:35:14;92362.13;;;18.13;56.24
39455;BME280;25155;41.890;23.446;2023-08-21T04:37:46;92364.28;;;18.11;56.48
39455;BME280;25155;41.890;23.446;2023-08-21T04:40:13;92361.38;;;18.13;56.55
39455;BME280;25155;41.890;23.446;2023-08-21T04:42:41;92356.66;;;18.10;57.05
39455;BME280;25155;41.890;23.446;2023-08-21T04:45:08;92360.47;;;18.17;56.89
39455;BME280;25155;41.890;23.446;2023-08-21T04:47:35;92354.91;;;18.19;57.58
39455;BME280;25155;41.890;23.446;2023-08-21T04:50:05;92357.84;;;18.17;57.20
39455;BME280;25155;41.890;23.446;2023-08-21T04:52:32;92352.91;;;18.24;57.19
39455;BME280;25155;41.890;23.446;2023-08-21T04:55:00;92359.94;;;18.29;56.94
39455;BME280;25155;41.890;23.446;2023-08-21T04:57:27;92359.03;;;18.34;56.73
39455;BME280;25155;41.890;23.446;2023-08-21T04:59:54;92362.03;;;18.41;56.72
39455;BME280;25155;41.890;23.446;2023-08-21T05:02:21;92367.97;;;18.47;56.57
39455;BME280;25155;41.890;23.446;2023-08-21T05:04:49;92369.25;;;18.49;56.36
39455;BME280;25155;41.890;23.446;2023-08-21T05:07:17;92361.66;;;18.56;56.11
39455;BME280;25155;41.890;23.446;2023-08-21T05:09:45;92363.72;;;18.59;56.80
39455;BME280;25155;41.890;23.446;2023-08-21T05:12:12;92357.81;;;18.62;56.54
39455;BME280;25155;41.890;23.446;2023-08-21T05:14:40;92365.63;;;18.68;57.05
39455;BME280;25155;41.890;23.446;2023-08-21T05:17:07;92370.19;;;18.76;56.88
39455;BME280;25155;41.890;23.446;2023-08-21T05:19:34;92360.25;;;18.81;56.85
39455;BME280;25155;41.890;23.446;2023-08-21T05:22:02;92362.03;;;18.86;57.54
39455;BME280;25155;41.890;23.446;2023-08-21T05:24:31;92366.72;;;18.89;57.44
39455;BME280;25155;41.890;23.446;2023-08-21T05:26:58;92369.22;;;18.94;58.34
39455;BME280;25155;41.890;23.446;2023-08-21T05:29:25;92374.88;;;19.02;57.79
39455;BME280;25155;41.890;23.446;2023-08-21T05:31:53;92369.31;;;19.12;57.97
39455;BME280;25155;41.890;23.446;2023-08-21T05:34:20;92368.56;;;19.20;57.32
39455;BME280;25155;41.890;23.446;2023-08-21T05:36:47;92370.78;;;19.27;57.79
39455;BME280;25155;41.890;23.446;2023-08-21T05:39:15;92368.00;;;19.32;57.58
39455;BME280;25155;41.890;23.446;2023-08-21T05:41:43;92362.25;;;19.39;57.56
39455;BME280;25155;41.890;23.446;2023-08-21T05:44:10;92361.50;;;19.47;57.51
39455;BME280;25155;41.890;23.446;2023-08-21T05:46:37;92372.41;;;19.54;57.45
39455;BME280;25155;41.890;23.446;2023-08-21T05:49:04;92373.06;;;19.60;57.27
39455;BME280;25155;41.890;23.446;2023-08-21T05:51:31;92374.97;;;19.68;57.28
39455;BME280;25155;41.890;23.446;2023-08-21T05:53:59;92376.88;;;19.76;57.93
39455;BME280;25155;41.890;23.446;2023-08-21T05:56:26;92364.41;;;19.85;56.82
39455;BME280;25155;41.890;23.446;2023-08-21T05:58:55;92369.25;;;19.92;57.58
39455;BME280;25155;41.890;23.446;2023-08-21T06:01:22;92367.72;;;20.00;57.46
39455;BME280;25155;41.890;23.446;2023-08-21T06:03:49;92373.00;;;20.08;57.28
39455;BME280;25155;41.890;23.446;2023-08-21T06:06:16;92375.19;;;20.15;56.86
39455;BME280;25155;41.890;23.446;2023-08-21T06:08:43;92371.47;;;20.25;56.60
39455;BME280;25155;41.890;23.446;2023-08-21T06:11:11;92361.47;;;20.31;56.76
39455;BME280;25155;41.890;23.446;2023-08-21T06:13:38;92370.22;;;20.40;56.56
39455;BME280;25155;41.890;23.446;2023-08-21T06:16:06;92366.78;;;20.48;56.12
39455;BME280;25155;41.890;23.446;2023-08-21T06:18:34;92370.53;;;20.56;56.96
39455;BME280;25155;41.890;23.446;2023-08-21T06:21:01;92376.16;;;20.63;56.32
39455;BME280;25155;41.890;23.446;2023-08-21T06:23:28;92374.91;;;20.69;56.84
39455;BME280;25155;41.890;23.446;2023-08-21T06:25:55;92375.97;;;20.77;55.98
39455;BME280;25155;41.890;23.446;2023-08-21T06:28:23;92374.09;;;20.86;55.78
39455;BME280;25155;41.890;23.446;2023-08-21T06:30:55;92368.31;;;20.93;55.90
39455;BME280;25155;41.890;23.446;2023-08-21T06:33:25;92373.25;;;21.03;56.06
39455;BME280;25155;41.890;23.446;2023-08-21T06:35:52;92374.34;;;21.11;55.00
39455;BME280;25155;41.890;23.446;2023-08-21T06:38:19;92372.44;;;21.20;55.47
39455;BME280;25155;41.890;23.446;2023-08-21T06:40:47;92371.31;;;21.30;54.99
39455;BME280;25155;41.890;23.446;2023-08-21T06:43:14;92376.91;;;21.37;54.49
39455;BME280;25155;41.890;23.446;2023-08-21T06:45:41;92375.94;;;21.50;54.39
39455;BME280;25155;41.890;23.446;2023-08-21T06:48:08;92374.16;;;21.63;54.11
39455;BME280;25155;41.890;23.446;2023-08-21T06:50:38;92370.34;;;21.73;53.23
39455;BME280;25155;41.890;23.446;2023-08-21T06:53:06;92378.72;;;21.84;52.87
39455;BME280;25155;41.890;23.446;2023-08-21T06:55:33;92373.19;;;21.98;52.69
39455;BME280;25155;41.890;23.446;2023-08-21T06:58:00;92370.59;;;22.10;52.29
39455;BME280;25155;41.890;23.446;2023-08-21T07:00:28;92373.31;;;22.22;52.33
39455;BME280;25155;41.890;23.446;2023-08-21T07:02:55;92367.66;;;22.33;52.19
39455;BME280;25155;41.890;23.446;2023-08-21T07:05:22;92363.38;;;22.40;51.01
39455;BME280;25155;41.890;23.446;2023-08-21T07:07:51;92370.63;;;22.52;51.16
39455;BME280;25155;41.890;23.446;2023-08-21T07:10:19;92368.47;;;22.66;51.99
39455;BME280;25155;41.890;23.446;2023-08-21T07:12:46;92357.88;;;22.79;51.06
39455;BME280;25155;41.890;23.446;2023-08-21T07:15:14;92364.31;;;22.90;50.47
39455;BME280;25155;41.890;23.446;2023-08-21T07:17:41;92366.91;;;22.99;49.90
39455;BME280;25155;41.890;23.446;2023-08-21T07:20:09;92366.84;;;23.08;49.10
39455;BME280;25155;41.890;23.446;2023-08-21T07:22:36;92355.34;;;23.16;49.62
39455;BME280;25155;41.890;23.446;2023-08-21T07:25:06;92359.47;;;23.26;49.17
39455;BME280;25155;41.890;23.446;2023-08-21T07:27:33;92361.78;;;23.39;49.10
39455;BME280;25155;41.890;23.446;2023-08-21T07:30:01;92352.91;;;23.48;48.57
39455;BME280;25155;41.890;23.446;2023-08-21T07:32:28;92360.25;;;23.63;48.96
39455;BME280;25155;41.890;23.446;2023-08-21T07:34:55;92351.59;;;23.79;49.42
39455;BME280;25155;41.890;23.446;2023-08-21T07:37:22;92353.16;;;23.92;48.49
39455;BME280;25155;41.890;23.446;2023-08-21T07:39:49;92352.78;;;24.06;48.66
39455;BME280;25155;41.890;23.446;2023-08-21T07:42:18;92355.88;;;24.20;48.68
39455;BME280;25155;41.890;23.446;2023-08-21T07:44:45;92347.25;;;24.39;48.72
39455;BME280;25155;41.890;23.446;2023-08-21T07:47:13;92339.66;;;24.54;48.63
39455;BME280;25155;41.890;23.446;2023-08-21T07:49:40;92345.44;;;24.68;47.42
39455;BME280;25155;41.890;23.446;2023-08-21T07:52:08;92345.03;;;24.82;48.10
39455;BME280;25155;41.890;23.446;2023-08-21T07:54:35;92340.84;;;24.97;47.70
39455;BME280;25155;41.890;23.446;2023-08-21T07:57:03;92345.06;;;25.14;47.26
39455;BME280;25155;41.890;23.446;2023-08-21T07:59:32;92337.44;;;25.28;46.92
39455;BME280;25155;41.890;23.446;2023-08-21T08:01:59;92341.31;;;25.47;46.65
39455;BME280;25155;41.890;23.446;2023-08-21T08:21:44;92317.91;;;27.51;41.57
39455;BME280;25155;41.890;23.446;2023-08-21T08:24:12;92319.34;;;27.45;41.95
39455;BME280;25155;41.890;23.446;2023-08-21T08:26:39;92316.91;;;27.36;37.22
39455;BME280;25155;41.890;23.446;2023-08-21T08:29:08;92317.63;;;27.33;36.61
39455;BME280;25155;41.890;23.446;2023-08-21T08:31:36;92307.72;;;27.37;37.10
39455;BME280;25155;41.890;23.446;2023-08-21T08:34:04;92305.16;;;27.45;36.62
39455;BME280;25155;41.890;23.446;2023-08-21T08:36:31;92304.88;;;27.50;37.30
39455;BME280;25155;41.890;23.446;2023-08-21T08:39:00;92308.09;;;27.59;36.78
39455;BME280;25155;41.890;23.446;2023-08-21T08:41:33;92299.41;;;27.69;37.96
39455;BME280;25155;41.890;23.446;2023-08-21T08:44:01;92299.97;;;27.82;37.30
39455;BME280;25155;41.890;23.446;2023-08-21T08:46:30;92290.88;;;27.90;37.48
39455;BME280;25155;41.890;23.446;2023-08-21T08:48:58;92292.69;;;28.06;36.29
39455;BME280;25155;41.890;23.446;2023-08-21T08:51:28;92301.53;;;28.10;34.78
39455;BME280;25155;41.890;23.446;2023-08-21T08:53:59;92290.47;;;28.15;35.10
39455;BME280;25155;41.890;23.446;2023-08-21T08:56:27;92289.50;;;28.27;35.25
39455;BME280;25155;41.890;23.446;2023-08-21T08:58:54;92285.00;;;28.38;35.21
39455;BME280;25155;41.890;23.446;2023-08-21T09:01:21;92282.81;;;28.44;34.47
39455;BME280;25155;41.890;23.446;2023-08-21T09:03:48;92295.50;;;28.47;33.62
39455;BME280;25155;41.890;23.446;2023-08-21T09:06:17;92290.13;;;28.47;33.20
39455;BME280;25155;41.890;23.446;2023-08-21T09:08:53;92278.00;;;28.57;35.23
39455;BME280;25155;41.890;23.446;2023-08-21T09:11:22;92276.31;;;28.79;36.13
39455;BME280;25155;41.890;23.446;2023-08-21T09:13:50;92273.78;;;28.97;35.42
39455;BME280;25155;41.890;23.446;2023-08-21T09:16:18;92275.81;;;29.07;33.45
39455;BME280;25155;41.890;23.446;2023-08-21T09:18:48;92272.72;;;29.05;32.57
39455;BME280;25155;41.890;23.446;2023-08-21T09:21:17;92261.25;;;29.08;33.08
39455;BME280;25155;41.890;23.446;2023-08-21T09:23:44;92267.00;;;29.10;32.35
39455;BME280;25155;41.890;23.446;2023-08-21T09:26:18;92270.09;;;29.16;32.70
39455;BME280;25155;41.890;23.446;2023-08-21T09:28:48;92251.69;;;29.14;32.14
39455;BME280;25155;41.890;23.446;2023-08-21T09:31:16;92244.00;;;29.13;31.92
39455;BME280;25155;41.890;23.446;2023-08-21T09:33:43;92257.97;;;29.29;31.72
39455;BME280;25155;41.890;23.446;2023-08-21T09:36:11;92252.31;;;29.41;32.66
39455;BME280;25155;41.890;23.446;2023-08-21T09:38:38;92250.50;;;29.56;32.42
39455;BME280;25155;41.890;23.446;2023-08-21T09:41:07;92240.59;;;29.68;31.57
39455;BME280;25155;41.890;23.446;2023-08-21T09:43:41;92246.38;;;29.73;32.08
39455;BME280;25155;41.890;23.446;2023-08-21T09:46:14;92236.09;;;29.83;30.56
39455;BME280;25155;41.890;23.446;2023-08-21T09:48:43;92233.06;;;29.88;31.58
39455;BME280;25155;41.890;23.446;2023-08-21T09:51:11;92243.47;;;30.00;31.67
39455;BME280;25155;41.890;23.446;2023-08-21T09:53:40;92235.06;;;30.09;31.42
39455;BME280;25155;41.890;23.446;2023-08-21T09:56:08;92234.75;;;30.28;31.33
39455;BME280;25155;41.890;23.446;2023-08-21T09:58:35;92239.09;;;30.47;30.62
39455;BME280;25155;41.890;23.446;2023-08-21T10:01:05;92233.34;;;30.60;29.58
39455;BME280;25155;41.890;23.446;2023-08-21T10:03:40;92227.97;;;30.63;27.93
39455;BME280;25155;41.890;23.446;2023-08-21T10:06:09;92228.00;;;30.70;29.49
39455;BME280;25155;41.890;23.446;2023-08-21T10:08:39;92221.09;;;30.84;30.30
39455;BME280;25155;41.890;23.446;2023-08-21T10:11:07;92216.16;;;31.00;31.42
39455;BME280;25155;41.890;23.446;2023-08-21T10:13:37;92218.84;;;31.18;30.77
39455;BME280;25155;41.890;23.446;2023-08-21T10:16:05;92218.06;;;31.32;29.82
39455;BME280;25155;41.890;23.446;2023-08-21T10:18:34;92220.72;;;31.43;28.40
39455;BME280;25155;41.890;23.446;2023-08-21T10:21:13;92214.97;;;31.41;27.44
39455;BME280;25155;41.890;23.446;2023-08-21T10:23:42;92208.03;;;31.43;27.86
39455;BME280;25155;41.890;23.446;2023-08-21T10:26:13;92211.91;;;31.50;27.12
39455;BME280;25155;41.890;23.446;2023-08-21T10:28:49;92220.75;;;31.57;29.39
39455;BME280;25155;41.890;23.446;2023-08-21T10:31:30;92216.13;;;31.65;28.32
39455;BME280;25155;41.890;23.446;2023-08-21T10:33:59;92212.63;;;31.75;27.70
39455;BME280;25155;41.890;23.446;2023-08-21T10:39:43;92201.44;;;31.84;28.26
39455;BME280;25155;41.890;23.446;2023-08-21T10:42:37;92204.88;;;31.92;28.93
39455;BME280;25155;41.890;23.446;2023-08-21T10:45:10;92197.91;;;32.05;29.55
39455;BME280;25155;41.890;23.446;2023-08-21T10:47:38;92193.69;;;32.11;27.25
39455;BME280;25155;41.890;23.446;2023-08-21T10:50:06;92202.53;;;32.12;27.70
39455;BME280;25155;41.890;23.446;2023-08-21T10:52:36;92202.09;;;32.21;28.33
39455;BME280;25155;41.890;23.446;2023-08-21T10:55:06;92192.03;;;32.32;28.52
39455;BME280;25155;41.890;23.446;2023-08-21T10:57:33;92197.00;;;32.41;28.33
39455;BME280;25155;41.890;23.446;2023-08-21T11:00:03;92191.56;;;32.51;27.48
39455;BME280;25155;41.890;23.446;2023-08-21T11:02:31;92193.44;;;32.62;27.76
39455;BME280;25155;41.890;23.446;2023-08-21T11:05:00;92185.31;;;32.69;27.25
39455;BME280;25155;41.890;23.446;2023-08-21T11:07:29;92187.97;;;32.76;27.68
39455;BME280;25155;41.890;23.446;2023-08-21T11:09:57;92183.69;;;32.82;28.44
39455;BME280;25155;41.890;23.446;2023-08-21T11:12:27;92194.44;;;32.89;27.40
39455;BME280;25155;41.890;23.446;2023-08-21T11:14:55;92190.16;;;32.96;27.96
39455;BME280;25155;41.890;23.446;2023-08-21T11:17:23;92190.50;;;32.98;26.11
39455;BME280;25155;41.890;23.446;2023-08-21T11:19:50;92194.41;;;32.93;26.62
39455;BME280;25155;41.890;23.446;2023-08-21T11:24:52;92184.69;;;33.03;27.69
39455;BME280;25155;41.890;23.446;2023-08-21T11:27:20;92178.84;;;33.08;25.71
39455;BME280;25155;41.890;23.446;2023-08-21T11:29:49;92181.94;;;33.06;26.27
39455;BME280;25155;41.890;23.446;2023-08-21T11:32:18;92171.97;;;33.00;26.10
39455;BME280;25155;41.890;23.446;2023-08-21T11:34:50;92173.66;;;32.79;24.59
39455;BME280;25155;41.890;23.446;2023-08-21T11:37:18;92172.97;;;32.68;25.58
39455;BME280;25155;41.890;23.446;2023-08-21T11:39:48;92167.19;;;32.59;25.72
39455;BME280;25155;41.890;23.446;2023-08-21T11:42:19;92163.78;;;32.54;25.85
39455;BME280;25155;41.890;23.446;2023-08-21T11:44:50;92162.22;;;32.53;26.02
39455;BME280;25155;41.890;23.446;2023-08-21T11:47:19;92161.41;;;32.64;26.03
39455;BME280;25155;41.890;23.446;2023-08-21T11:49:48;92155.69;;;32.54;25.65
39455;BME280;25155;41.890;23.446;2023-08-21T11:52:18;92152.22;;;32.50;25.79
39455;BME280;25155;41.890;23.446;2023-08-21T11:54:48;92150.63;;;32.56;25.96
39455;BME280;25155;41.890;23.446;2023-08-21T11:57:16;92150.56;;;32.74;27.08
39455;BME280;25155;41.890;23.446;2023-08-21T11:59:50;92160.78;;;32.98;27.85
39455;BME280;25155;41.890;23.446;2023-08-21T12:02:21;92164.94;;;33.09;26.31
39455;BME280;25155;41.890;23.446;2023-08-21T12:04:52;92155.72;;;33.07;25.94
39455;BME280;25155;41.890;23.446;2023-08-21T12:07:19;92168.00;;;33.11;26.55
39455;BME280;25155;41.890;23.446;2023-08-21T12:09:47;92164.91;;;33.13;26.00
39455;BME280;25155;41.890;23.446;2023-08-21T12:12:15;92163.00;;;33.17;27.39
39455;BME280;25155;41.890;23.446;2023-08-21T12:14:42;92165.28;;;33.19;27.26
39455;BME280;25155;41.890;23.446;2023-08-21T12:17:11;92161.81;;;33.18;27.10
39455;BME280;25155;41.890;23.446;2023-08-21T12:19:38;92150.00;;;32.98;26.83
39455;BME280;25155;41.890;23.446;2023-08-21T12:22:05;92155.06;;;32.88;27.11
39455;BME280;25155;41.890;23.446;2023-08-21T12:24:32;92160.56;;;32.78;27.59
39455;BME280;25155;41.890;23.446;2023-08-21T12:26:59;92152.94;;;32.58;27.07
39455;BME280;25155;41.890;23.446;2023-08-21T12:29:27;92149.13;;;32.52;28.29
39455;BME280;25155;41.890;23.446;2023-08-21T12:31:54;92156.03;;;32.56;29.82
39455;BME280;25155;41.890;23.446;2023-08-21T12:34:23;92150.19;;;32.72;29.78
39455;BME280;25155;41.890;23.446;2023-08-21T12:36:50;92150.13;;;32.80;28.89
39455;BME280;25155;41.890;23.446;2023-08-21T12:39:18;92145.09;;;32.85;29.50
39455;BME280;25155;41.890;23.446;2023-08-21T12:41:45;92153.91;;;32.89;30.25
39455;BME280;25155;41.890;23.446;2023-08-21T12:44:12;92146.94;;;32.96;30.23
39455;BME280;25155;41.890;23.446;2023-08-21T12:46:40;92146.09;;;33.02;29.61
39455;BME280;25155;41.890;23.446;2023-08-21T12:49:08;92141.78;;;33.12;28.53
39455;BME280;25155;41.890;23.446;2023-08-21T12:51:37;92148.28;;;33.22;28.98
39455;BME280;25155;41.890;23.446;2023-08-21T12:54:04;92133.94;;;33.25;28.77
39455;BME280;25155;41.890;23.446;2023-08-21T12:56:31;92146.44;;;33.50;28.73
39455;BME280;25155;41.890;23.446;2023-08-21T12:58:58;92148.66;;;33.62;27.59
39455;BME280;25155;41.890;23.446;2023-08-21T13:01:26;92145.13;;;33.69;27.55
39455;BME280;25155;41.890;23.446;2023-08-21T13:03:53;92146.16;;;33.82;28.16
39455;BME280;25155;41.890;23.446;2023-08-21T13:06:20;92147.91;;;33.96;27.54
39455;BME280;25155;41.890;23.446;2023-08-21T13:08:49;92155.72;;;33.90;26.81
39455;BME280;25155;41.890;23.446;2023-08-21T13:11:16;92175.22;;;33.74;27.87
39455;BME280;25155;41.890;23.446;2023-08-21T13:13:43;92183.78;;;33.65;28.49
39455;BME280;25155;41.890;23.446;2023-08-21T13:18:39;92197.94;;;33.39;28.88
39455;BME280;25155;41.890;23.446;2023-08-21T13:21:08;92195.81;;;33.16;28.71
39455;BME280;25155;41.890;23.446;2023-08-21T13:23:35;92209.44;;;32.94;28.81